Flight Track Log - Related Links

Times and Time Zones

All times are in EDT time to prevent confusion due to time zone crossing. See the N777NC flight status page for this flight to view local times or setup timezone preferences in your user account.

Time Position Orientation Groundspeed Altitude Reporting Facility
EDT Latitude Longitude Course Direction KTS MPH feet Rate Location/Type
Wed 07:54:09 AM 33.6500 -84.4500 287° West 162 186 2,300  Level Atlanta TRACON
Wed 07:55:03 AM 33.6667 -84.5167 287° West 245 282 3,900 2,300 Climbing Atlanta TRACON
Wed 07:56:09 AM 33.7167 -84.5833 312° West 275 316 6,900 2,667 Climbing Atlanta TRACON
Wed 07:57:09 AM 33.8000 -84.5667 North 286 329 9,500 1,673 Climbing Atlanta TRACON
Wed 07:58:36 AM 33.9081 -84.5319 15° North 300 345 11,000 1,592 Climbing Atlanta Center
Wed 07:59:36 AM 33.9958 -84.4797 26° Northeast 336 387 13,400 1,500 Climbing Atlanta Center
Wed 08:00:36 AM 34.0900 -84.4225 27° Northeast 367 422 14,000 550 Climbing Atlanta Center
Wed 08:01:36 AM 34.1883 -84.3603 28° Northeast 384 442 14,500 1,550 Climbing Atlanta Center
Wed 08:02:36 AM 34.2886 -84.3128 21° North 384 442 17,100 2,400 Climbing Atlanta Center
Wed 08:03:36 AM 34.3972 -84.3056 North 384 442 19,300 1,900 Climbing Atlanta Center
Wed 08:04:36 AM 34.5036 -84.2908 North 384 442 20,900 1,650 Climbing Atlanta Center
Wed 08:05:36 AM 34.6225 -84.2633 11° North 389 448 22,600 1,800 Climbing Atlanta Center
Wed 08:06:36 AM 34.7353 -84.2258 15° North 394 453 24,500 1,450 Climbing Atlanta Center
Wed 08:07:36 AM 34.8397 -84.1931 14° North 394 453 25,500 1,100 Climbing Atlanta Center
Wed 08:08:36 AM 34.9525 -84.1553 15° North 399 459 26,700 1,200 Climbing Atlanta Center
Wed 08:09:36 AM 35.0672 -84.1250 12° North 409 471 27,900 1,150 Climbing Atlanta Center
Wed 08:10:36 AM 35.1861 -84.1100 North 414 476 29,000 550 Climbing Atlanta Center
Wed 08:11:36 AM 35.3053 -84.0872 North 424 488 29,000  Level Atlanta Center
Wed 08:12:36 AM 35.4200 -84.0361 20° North 429 494 29,000  Level Atlanta Center
Wed 08:13:36 AM 35.5347 -83.9878 19° North 429 494 29,000  Level Atlanta Center
Wed 08:14:36 AM 35.6536 -83.9544 13° North 434 499 29,000  Level Atlanta Center
Wed 08:15:36 AM 35.7767 -83.9311 North 434 499 29,000  Level Atlanta Center
Wed 08:16:36 AM 35.8914 -83.8797 20° North 434 499 29,000  Level Atlanta Center
Wed 08:17:36 AM 36.0039 -83.8206 23° Northeast 428 493 29,000  Level Atlanta Center
Wed 08:18:52 AM 36.1378 -83.7464 24° Northeast 443 510 29,000  Level Indianapolis Center
Wed 08:19:54 AM 36.2431 -83.6642 32° Northeast 447 514 29,000  Level Indianapolis Center
Wed 08:20:56 AM 36.3511 -83.5919 28° Northeast 443 510 29,000  Level Indianapolis Center
Wed 08:21:58 AM 36.4894 -83.5197 23° Northeast 447 514 29,000  Level Indianapolis Center
Wed 08:22:59 AM 36.5875 -83.4606 26° Northeast 450 518 29,000 537 Level Indianapolis Center
Wed 08:24:01 AM 36.7139 -83.3731 29° Northeast 442 509 30,100 1,306 Climbing Indianapolis Center
Wed 08:25:03 AM 36.8267 -83.3136 23° Northeast 431 496 31,700 1,210 Climbing Indianapolis Center
Wed 08:26:05 AM 36.9364 -83.2500 25° Northeast 427 491 32,600 919 Climbing Indianapolis Center
Wed 08:27:07 AM 37.0450 -83.1769 28° Northeast 436 502 33,600 774 Climbing Indianapolis Center
Wed 08:28:09 AM 37.1528 -83.0997 30° Northeast 439 505 34,200 532 Climbing Indianapolis Center
Wed 08:29:11 AM 37.2594 -83.0186 31° Northeast 444 511 34,700 387 Climbing Indianapolis Center
Wed 08:30:13 AM 37.3706 -82.9467 27° Northeast 446 513 35,000 145 Climbing Indianapolis Center
Wed 08:31:15 AM 37.4786 -82.8667 30° Northeast 449 517 35,000 -341 Level Indianapolis Center
Wed 08:32:16 AM 37.6050 -82.7728 30° Northeast 451 519 34,300 -488 Descending Indianapolis Center
Wed 08:33:18 AM 37.7122 -82.6847 33° Northeast 462 532 34,000 -145 Descending Indianapolis Center
Wed 08:34:20 AM 37.8200 -82.5994 32° Northeast 455 524 34,000 -97 Level Indianapolis Center
Wed 08:35:22 AM 37.9244 -82.5047 36° Northeast 460 529 33,800 -484 Descending Indianapolis Center
Wed 08:36:24 AM 38.0306 -82.4153 34° Northeast 457 526 33,000 -823 Descending Indianapolis Center
Wed 08:37:26 AM 38.1383 -82.3311 32° Northeast 459 528 32,100 -823 Descending Indianapolis Center
Wed 08:38:28 AM 38.2419 -82.2378 35° Northeast 455 524 31,300 -1,415 Descending Indianapolis Center
Wed 08:39:29 AM 38.3683 -82.1344 33° Northeast 449 517 29,200 -1,854 Descending Indianapolis Center
Wed 08:40:31 AM 38.4783 -82.0531 30° Northeast 453 521 27,500 -1,065 Descending Indianapolis Center
Wed 08:41:33 AM 38.5839 -81.9681 32° Northeast 447 514 27,000 -242 Descending Indianapolis Center
Wed 08:42:35 AM 38.6903 -81.8822 32° Northeast 447 514 27,000  Level Indianapolis Center
Wed 08:43:37 AM 38.7992 -81.7856 35° Northeast 466 536 27,000 -97 Level Indianapolis Center
Wed 08:44:39 AM 38.9156 -81.7000 30° Northeast 473 544 26,800 -1,016 Descending Indianapolis Center
Wed 08:45:41 AM 39.0306 -81.6442 21° North 436 502 24,900 -2,371 Descending Indianapolis Center
Wed 08:46:43 AM 39.1422 -81.5886 21° North 428 493 21,900 -1,902 Descending Indianapolis Center
Wed 08:47:44 AM 39.2517 -81.5192 26° Northeast 434 499 21,000 -439 Descending Indianapolis Center
Wed 08:48:46 AM 39.3489 -81.4233 37° Northeast 438 504 21,000  Level Indianapolis Center
Wed 08:49:48 AM 39.4514 -81.2858 46° Northeast 442 509 21,000  Level Indianapolis Center
Wed 08:50:50 AM 39.5417 -81.1797 42° Northeast 439 505 21,000 -919 Level Indianapolis Center
Wed 08:51:52 AM 39.6383 -81.0883 36° Northeast 435 501 19,100 -2,419 Descending Indianapolis Center
Wed 08:52:54 AM 39.7403 -81.0256 25° Northeast 408 470 16,000 -2,758 Descending Indianapolis Center
Wed 08:53:56 AM 39.8414 -80.9775 20° North 391 450 13,400 -2,468 Descending Indianapolis Center
Wed 08:54:58 AM 39.9189 -80.8883 41° Northeast 382 440 10,900 -1,645 Descending Indianapolis Center
Wed 08:56:00 AM 39.9736 -80.7758 58° Northeast 344 396 10,000 -358 Descending Indianapolis Center
Wed 08:57:12 AM 40.0381 -80.6481 57° Northeast 330 380 10,100  Climbing Cleveland Center
Wed 08:58:12 AM 40.0714 -80.5450 67° East 310 357 10,000  Descending Cleveland Center
Wed 08:59:12 AM 40.0964 -80.4447 72° East 310 357 10,100 50 Climbing Cleveland Center
Wed 09:00:12 AM 40.1189 -80.3225 76° East 305 351 10,100  Level Cleveland Center
Wed 09:01:12 AM 40.1436 -80.2083 74° East 318 366 10,100  Level Cleveland Center
Wed 09:02:12 AM 40.1975 -80.1264 49° Northeast 296 341 10,100 -700 Level Cleveland Center
Wed 09:03:12 AM 40.2661 -80.0661 34° Northeast 285 328 8,700 -1,400 Descending Cleveland Center
Wed 09:05:00 AM 40.4320 -80.1887 331° Northwest  Level Estimated
Wed 09:12:00 AM 40.4915 -80.2329 331° Northwest  Level Estimated

Login

Don't have an account? Register now (free) for customized features, flight alerts, and more!